Terminal Aerodrome Forecast
Issued by NWS

Home | Current Version | Previous Version | Text Only | Print | Product List | Glossary On
Versions: 1 2 3 4 5 6 7 8 9 10 11 12 13 14 15 16 17 18 19 20 21 22 23 24 25 26 27
000
FTUS44 KOUN 301730
TAFPNC
TAF
KPNC 301730Z 3018/3118 02014G20KT 5SM -TSRA BR SCT025 OVC050CB
      TEMPO 3018/3021 3SM TSRA BR SCT015 OVC025CB
     FM302300 12008KT P6SM SCT040 BKN100=

USA.gov is the U.S. government's official web portal to all federal, state and local government web resources and services.